Time;durP1;ratioP1;P1;durP2;ratioP2;P2;SDS_P1;SDS_P2;PMS_P1;PMS_P2;Temp;Humidity;BMP_temperature;BMP_pressure;BME280_temperature;BME280_humidity;BME280_pressure;Samples;Min_cycle;Max_cycle;Signal;HPM_P1;HPM_P2
2023/07/22 00:01:32;;;;;;;2.80;1.70;;;;;;;;;;5114262;28;20043;-69
2023/07/22 00:03:59;;;;;;;2.38;1.50;;;;;;;;;;5113517;28;20044;-70
2023/07/22 00:06:26;;;;;;;2.75;1.67;;;;;;;;;;5113658;28;20043;-68
2023/07/22 00:08:53;;;;;;;4.60;1.88;;;;;;;;;;5113723;28;20040;-69
2023/07/22 00:11:20;;;;;;;3.58;1.60;;;;;;;;;;5113613;28;20499;-68
2023/07/22 00:13:47;;;;;;;3.50;1.85;;;;;;;;;;5113524;28;20687;-68
2023/07/22 00:16:13;;;;;;;4.30;2.05;;;;;;;;;;5113362;28;20510;-68
2023/07/22 00:18:41;;;;;;;2.38;1.70;;;;;;;;;;5114274;28;20048;-69
2023/07/22 00:21:08;;;;;;;3.35;1.90;;;;;;;;;;5113240;28;20134;-67
2023/07/22 00:23:35;;;;;;;2.90;1.83;;;;;;;;;;5113218;28;20145;-68
2023/07/22 00:26:02;;;;;;;3.83;2.10;;;;;;;;;;5112880;28;20052;-67
2023/07/22 00:28:29;;;;;;;5.85;3.42;;;;;;;;;;5113561;28;20055;-67
2023/07/22 00:30:57;;;;;;;6.78;4.22;;;;;;;;;;5112716;28;20050;-68
2023/07/22 00:33:24;;;;;;;9.10;5.45;;;;;;;;;;5113153;28;20432;-67
2023/07/22 00:35:51;;;;;;;19.60;8.93;;;;;;;;;;5112957;28;20044;-68
2023/07/22 00:38:19;;;;;;;18.60;9.48;;;;;;;;;;5112876;28;20044;-68
2023/07/22 00:40:45;;;;;;;16.48;8.48;;;;;;;;;;5112661;28;20075;-68
2023/07/22 00:43:12;;;;;;;18.38;8.82;;;;;;;;;;5113153;28;20048;-68
2023/07/22 00:45:39;;;;;;;15.85;8.20;;;;;;;;;;5112946;28;20047;-68
2023/07/22 00:48:05;;;;;;;14.38;7.00;;;;;;;;;;5113220;28;20077;-67
2023/07/22 00:50:33;;;;;;;11.15;5.45;;;;;;;;;;5112389;28;20415;-67
2023/07/22 00:53:00;;;;;;;10.25;4.75;;;;;;;;;;5112814;28;20051;-68
2023/07/22 00:55:27;;;;;;;8.48;4.05;;;;;;;;;;5112896;28;20074;-67
2023/07/22 00:57:55;;;;;;;6.60;3.20;;;;;;;;;;5112653;28;20208;-67
2023/07/22 01:00:22;;;;;;;5.20;3.05;;;;;;;;;;5112455;28;20043;-67
2023/07/22 01:02:49;;;;;;;5.57;2.42;;;;;;;;;;5112624;28;20052;-67
2023/07/22 01:05:16;;;;;;;3.50;2.10;;;;;;;;;;5112332;28;20074;-68
2023/07/22 01:07:43;;;;;;;3.42;1.88;;;;;;;;;;5112575;28;20131;-67
2023/07/22 01:10:12;;;;;;;3.30;1.55;;;;;;;;;;5112539;28;20047;-67
2023/07/22 01:12:39;;;;;;;3.47;1.55;;;;;;;;;;5112572;28;20051;-68
2023/07/22 01:15:07;;;;;;;3.00;1.40;;;;;;;;;;5112336;28;20047;-68
2023/07/22 01:17:36;;;;;;;2.90;1.60;;;;;;;;;;5112369;28;20044;-70
2023/07/22 01:20:04;;;;;;;2.92;1.70;;;;;;;;;;5112167;28;20449;-73
2023/07/22 01:22:33;;;;;;;2.78;1.60;;;;;;;;;;5112302;28;20054;-70
2023/07/22 01:25:01;;;;;;;2.78;1.38;;;;;;;;;;5111872;28;20469;-74
2023/07/22 01:27:27;;;;;;;2.83;1.60;;;;;;;;;;5112209;28;20391;-69
2023/07/22 01:29:54;;;;;;;3.10;1.48;;;;;;;;;;5111782;28;20062;-75
2023/07/22 01:32:21;;;;;;;2.53;1.70;;;;;;;;;;5112041;28;20047;-76
2023/07/22 01:34:47;;;;;;;2.20;1.35;;;;;;;;;;5112143;28;20495;-74
2023/07/22 01:37:14;;;;;;;2.47;1.50;;;;;;;;;;5111707;28;20044;-69
2023/07/22 01:39:41;;;;;;;3.50;1.42;;;;;;;;;;5112079;28;20101;-68
2023/07/22 01:42:08;;;;;;;3.88;1.55;;;;;;;;;;5111859;28;20122;-68
2023/07/22 01:44:35;;;;;;;2.78;1.50;;;;;;;;;;5112005;28;20484;-68
2023/07/22 01:47:03;;;;;;;3.10;1.55;;;;;;;;;;5111301;28;20438;-67
2023/07/22 01:49:30;;;;;;;2.92;1.40;;;;;;;;;;5111617;28;20051;-70
2023/07/22 01:51:56;;;;;;;2.92;1.60;;;;;;;;;;5110583;28;20505;-69
2023/07/22 01:54:23;;;;;;;2.17;1.30;;;;;;;;;;5111553;28;20040;-68
2023/07/22 01:56:50;;;;;;;3.38;1.20;;;;;;;;;;5111566;28;20082;-69
2023/07/22 01:59:17;;;;;;;2.03;1.13;;;;;;;;;;5111454;28;20052;-68
2023/07/22 02:01:44;;;;;;;3.58;1.63;;;;;;;;;;5111262;28;20051;-68
2023/07/22 02:04:10;;;;;;;2.53;1.30;;;;;;;;;;5111308;28;20044;-69
2023/07/22 02:06:38;;;;;;;5.25;1.40;;;;;;;;;;5110934;28;20051;-69
2023/07/22 02:09:08;;;;;;;3.35;1.48;;;;;;;;;;5111430;28;20052;-69
2023/07/22 02:11:36;;;;;;;3.28;1.35;;;;;;;;;;5111018;28;20052;-70
2023/07/22 02:14:06;;;;;;;3.00;1.60;;;;;;;;;;5111297;28;20048;-70
2023/07/22 02:16:35;;;;;;;3.85;1.40;;;;;;;;;;5111122;28;20479;-67
2023/07/22 02:19:03;;;;;;;2.03;1.45;;;;;;;;;;5111336;28;20062;-71
2023/07/22 02:21:29;;;;;;;3.67;1.52;;;;;;;;;;5110916;28;20487;-69
2023/07/22 02:23:56;;;;;;;2.08;1.30;;;;;;;;;;5110770;28;20048;-68
2023/07/22 02:26:23;;;;;;;2.60;1.52;;;;;;;;;;5110869;28;20050;-68
2023/07/22 02:28:51;;;;;;;4.45;1.55;;;;;;;;;;5110949;28;20110;-68
2023/07/22 02:31:17;;;;;;;5.43;1.70;;;;;;;;;;5110326;28;20052;-70
2023/07/22 02:33:44;;;;;;;2.50;1.33;;;;;;;;;;5111203;28;20048;-68
2023/07/22 02:36:11;;;;;;;2.83;1.35;;;;;;;;;;5110930;28;20071;-69
2023/07/22 02:38:38;;;;;;;2.22;1.45;;;;;;;;;;5111029;28;20159;-70
2023/07/22 02:41:07;;;;;;;3.40;1.40;;;;;;;;;;5110297;28;20044;-68
2023/07/22 02:43:34;;;;;;;2.92;1.30;;;;;;;;;;5110822;28;20040;-67
2023/07/22 02:46:03;;;;;;;3.65;1.75;;;;;;;;;;5110372;28;20439;-70
2023/07/22 02:48:31;;;;;;;2.92;1.30;;;;;;;;;;5110543;28;20054;-69
2023/07/22 02:51:08;;;;;;;3.22;1.58;;;;;;;;;;5110326;28;20083;-70
2023/07/22 02:53:38;;;;;;;3.95;1.45;;;;;;;;;;5110826;28;20043;-68
2023/07/22 02:56:08;;;;;;;2.47;1.42;;;;;;;;;;5110455;28;20162;-70
2023/07/22 02:58:36;;;;;;;2.90;1.55;;;;;;;;;;5110802;28;20047;-71
2023/07/22 03:01:04;;;;;;;2.40;1.30;;;;;;;;;;5110261;28;20046;-71
2023/07/22 03:03:34;;;;;;;2.67;1.33;;;;;;;;;;5109723;28;20043;-69
2023/07/22 03:06:02;;;;;;;2.67;1.20;;;;;;;;;;5110175;28;20039;-70
2023/07/22 03:08:29;;;;;;;2.60;1.40;;;;;;;;;;5110413;28;20070;-69
2023/07/22 03:10:56;;;;;;;4.65;1.60;;;;;;;;;;5110313;28;20048;-69
2023/07/22 03:13:22;;;;;;;1.88;1.35;;;;;;;;;;5110749;28;20066;-73
2023/07/22 03:15:49;;;;;;;2.42;1.40;;;;;;;;;;5110326;28;20385;-73
2023/07/22 03:18:16;;;;;;;2.72;1.60;;;;;;;;;;5110016;28;20048;-68
2023/07/22 03:20:42;;;;;;;2.70;1.63;;;;;;;;;;5110397;28;20095;-69
2023/07/22 03:23:09;;;;;;;2.72;1.35;;;;;;;;;;5109657;28;20047;-70
2023/07/22 03:25:36;;;;;;;2.95;1.50;;;;;;;;;;5110478;28;20127;-70
2023/07/22 03:28:04;;;;;;;2.30;1.30;;;;;;;;;;5110010;28;20127;-72
2023/07/22 03:30:32;;;;;;;2.47;1.33;;;;;;;;;;5110133;28;20051;-68
2023/07/22 03:33:00;;;;;;;2.15;1.33;;;;;;;;;;5109804;28;20050;-71
2023/07/22 03:35:28;;;;;;;1.70;1.10;;;;;;;;;;5110434;28;20051;-69
2023/07/22 03:37:55;;;;;;;2.78;1.23;;;;;;;;;;5109970;28;20048;-69
2023/07/22 03:40:29;;;;;;;4.63;1.15;;;;;;;;;;5110350;28;20055;-70
2023/07/22 03:42:57;;;;;;;3.15;0.98;;;;;;;;;;5109880;28;20043;-74
2023/07/22 03:45:24;;;;;;;2.28;1.30;;;;;;;;;;5110019;28;20044;-69
2023/07/22 03:47:53;;;;;;;3.35;1.35;;;;;;;;;;5109675;28;20094;-71
2023/07/22 03:50:20;;;;;;;2.47;1.38;;;;;;;;;;5110008;28;20112;-68
2023/07/22 03:52:46;;;;;;;3.95;1.20;;;;;;;;;;5109652;28;20050;-71
2023/07/22 03:55:13;;;;;;;2.38;1.27;;;;;;;;;;5110189;28;20047;-69
2023/07/22 03:57:40;;;;;;;3.83;1.42;;;;;;;;;;5109950;28;20059;-75
2023/07/22 04:00:10;;;;;;;1.67;1.10;;;;;;;;;;5109942;28;20410;-68
2023/07/22 04:02:37;;;;;;;2.30;1.20;;;;;;;;;;5109668;28;20055;-74
2023/07/22 04:05:04;;;;;;;5.07;1.40;;;;;;;;;;5109926;28;20044;-69
2023/07/22 04:07:31;;;;;;;2.25;1.23;;;;;;;;;;5109820;28;20062;-71
2023/07/22 04:09:58;;;;;;;1.85;1.20;;;;;;;;;;5109986;28;20550;-70
2023/07/22 04:12:24;;;;;;;1.80;1.00;;;;;;;;;;5109748;28;20048;-78
2023/07/22 04:14:51;;;;;;;5.43;1.13;;;;;;;;;;5111086;28;20044;-76
2023/07/22 04:17:18;;;;;;;5.80;1.20;;;;;;;;;;5113190;28;20047;-71
2023/07/22 04:19:44;;;;;;;1.92;1.00;;;;;;;;;;5113524;28;20043;-69
2023/07/22 04:22:11;;;;;;;2.42;1.40;;;;;;;;;;5113085;28;20043;-70
2023/07/22 04:24:38;;;;;;;1.80;1.13;;;;;;;;;;5113446;28;20050;-69
2023/07/22 04:27:05;;;;;;;2.00;1.30;;;;;;;;;;5113086;28;20574;-68
2023/07/22 04:29:32;;;;;;;2.60;1.40;;;;;;;;;;5113174;28;20043;-68
2023/07/22 04:32:00;;;;;;;1.45;1.05;;;;;;;;;;5113333;28;20052;-68
2023/07/22 04:34:30;;;;;;;1.98;1.40;;;;;;;;;;5113296;28;20139;-68
2023/07/22 04:36:57;;;;;;;2.35;1.20;;;;;;;;;;5113064;28;20051;-68
2023/07/22 04:39:24;;;;;;;2.38;1.30;;;;;;;;;;5112826;28;20055;-68
2023/07/22 04:41:51;;;;;;;2.13;1.20;;;;;;;;;;5113159;28;20059;-70
2023/07/22 04:44:19;;;;;;;2.08;1.15;;;;;;;;;;5113033;28;20123;-69
2023/07/22 04:46:46;;;;;;;3.75;1.30;;;;;;;;;;5112949;28;20548;-70
2023/07/22 04:49:13;;;;;;;2.17;1.27;;;;;;;;;;5112688;28;20491;-69
2023/07/22 04:51:40;;;;;;;2.08;1.48;;;;;;;;;;5112910;28;20048;-68
2023/07/22 04:54:07;;;;;;;2.05;1.20;;;;;;;;;;5112573;28;20044;-68
2023/07/22 04:56:34;;;;;;;4.28;1.67;;;;;;;;;;5095124;28;20050;-70
2023/07/22 04:59:00;;;;;;;1.98;1.08;;;;;;;;;;5112918;28;20048;-69
2023/07/22 05:01:28;;;;;;;2.58;1.42;;;;;;;;;;5112664;28;20052;-68
2023/07/22 05:03:55;;;;;;;1.75;1.20;;;;;;;;;;5112483;28;20047;-73
2023/07/22 05:06:23;;;;;;;3.25;1.05;;;;;;;;;;5112340;28;20048;-69
2023/07/22 05:08:51;;;;;;;2.03;1.20;;;;;;;;;;5112207;28;20479;-71
2023/07/22 05:11:18;;;;;;;2.38;1.20;;;;;;;;;;5112681;28;20047;-68
2023/07/22 05:13:45;;;;;;;2.72;1.20;;;;;;;;;;5112351;28;20048;-68
2023/07/22 05:16:11;;;;;;;2.65;1.17;;;;;;;;;;5112744;28;20046;-69
2023/07/22 05:18:38;;;;;;;2.15;1.10;;;;;;;;;;5112373;28;20058;-68
2023/07/22 05:21:05;;;;;;;2.42;1.45;;;;;;;;;;5112565;28;20052;-71
2023/07/22 05:23:32;;;;;;;1.77;1.30;;;;;;;;;;5111770;28;20047;-68
2023/07/22 05:25:58;;;;;;;2.85;1.20;;;;;;;;;;5111556;28;20043;-68
2023/07/22 05:28:25;;;;;;;2.03;1.30;;;;;;;;;;5112008;28;20050;-68
2023/07/22 05:30:52;;;;;;;1.95;1.30;;;;;;;;;;5111955;28;20527;-69
2023/07/22 05:33:18;;;;;;;2.22;1.25;;;;;;;;;;5111759;28;20090;-68
2023/07/22 05:35:45;;;;;;;2.30;1.27;;;;;;;;;;5111919;28;20213;-74
2023/07/22 05:38:14;;;;;;;2.22;1.25;;;;;;;;;;5111471;28;20167;-72
2023/07/22 05:40:41;;;;;;;2.67;1.23;;;;;;;;;;5112011;28;20047;-68
2023/07/22 05:43:08;;;;;;;2.65;1.35;;;;;;;;;;5111284;28;20054;-70
2023/07/22 05:45:34;;;;;;;2.15;1.25;;;;;;;;;;5111826;28;20043;-67
2023/07/22 05:48:01;;;;;;;1.98;1.23;;;;;;;;;;5111578;28;20055;-68
2023/07/22 05:50:28;;;;;;;4.53;1.23;;;;;;;;;;5111914;28;20051;-68
2023/07/22 05:52:55;;;;;;;1.90;1.30;;;;;;;;;;5111534;28;20070;-67
2023/07/22 05:55:21;;;;;;;2.83;1.30;;;;;;;;;;5111805;28;20048;-68
2023/07/22 05:57:48;;;;;;;2.55;1.30;;;;;;;;;;5111627;28;20104;-67
2023/07/22 06:00:15;;;;;;;1.92;1.15;;;;;;;;;;5111291;28;20043;-68
2023/07/22 06:02:42;;;;;;;1.95;1.10;;;;;;;;;;5111732;28;20198;-68
2023/07/22 06:05:09;;;;;;;1.88;1.17;;;;;;;;;;5111071;28;20656;-68
2023/07/22 06:07:36;;;;;;;2.90;1.38;;;;;;;;;;5093264;28;20075;-70
2023/07/22 06:10:04;;;;;;;1.77;1.10;;;;;;;;;;5111502;28;20044;-68
2023/07/22 06:12:30;;;;;;;2.80;1.17;;;;;;;;;;5111424;28;20145;-67
2023/07/22 06:14:57;;;;;;;2.67;1.10;;;;;;;;;;5111591;28;20036;-70
2023/07/22 06:17:24;;;;;;;1.65;1.15;;;;;;;;;;5111669;28;20065;-73
2023/07/22 06:19:51;;;;;;;3.17;1.08;;;;;;;;;;5110699;28;20522;-67
2023/07/22 06:22:17;;;;;;;1.50;1.10;;;;;;;;;;5110668;28;20070;-68
2023/07/22 06:24:44;;;;;;;1.80;1.10;;;;;;;;;;5110929;28;20040;-68
2023/07/22 06:27:11;;;;;;;1.88;1.20;;;;;;;;;;5111206;28;20043;-70
2023/07/22 06:29:38;;;;;;;1.50;1.00;;;;;;;;;;5110855;28;20112;-70
2023/07/22 06:32:05;;;;;;;2.05;1.33;;;;;;;;;;5110939;28;20134;-68
2023/07/22 06:34:32;;;;;;;1.10;0.90;;;;;;;;;;5110601;28;20048;-68
2023/07/22 06:36:58;;;;;;;1.60;1.10;;;;;;;;;;5111180;28;20058;-67
2023/07/22 06:39:25;;;;;;;1.73;1.10;;;;;;;;;;5110323;28;20488;-69
2023/07/22 06:41:51;;;;;;;2.10;1.23;;;;;;;;;;5110924;28;20054;-68
2023/07/22 06:44:18;;;;;;;1.90;1.13;;;;;;;;;;5110282;28;20043;-67
2023/07/22 06:46:45;;;;;;;3.20;1.30;;;;;;;;;;5092992;28;20058;-67
2023/07/22 06:49:12;;;;;;;2.25;1.20;;;;;;;;;;5110803;28;20047;-67
2023/07/22 06:51:38;;;;;;;1.98;1.20;;;;;;;;;;5110912;28;20047;-68
2023/07/22 06:54:06;;;;;;;2.05;1.10;;;;;;;;;;5110364;28;20411;-67
2023/07/22 06:56:32;;;;;;;2.00;1.30;;;;;;;;;;5110884;28;20044;-67
2023/07/22 06:58:59;;;;;;;2.05;1.27;;;;;;;;;;5110250;28;20058;-68
2023/07/22 07:01:25;;;;;;;1.65;1.30;;;;;;;;;;5110590;28;20052;-68
2023/07/22 07:03:52;;;;;;;3.65;1.30;;;;;;;;;;5109913;28;20047;-67
2023/07/22 07:06:19;;;;;;;2.60;1.15;;;;;;;;;;5110760;28;20169;-68
2023/07/22 07:08:46;;;;;;;1.88;1.10;;;;;;;;;;5110493;28;20047;-70
2023/07/22 07:11:13;;;;;;;3.15;1.30;;;;;;;;;;5110747;28;20051;-69
2023/07/22 07:13:40;;;;;;;2.28;1.00;;;;;;;;;;5110404;28;20047;-68
2023/07/22 07:16:24;;;;;;;1.92;1.40;;;;;;;;;;5110270;28;20044;-71
2023/07/22 07:18:52;;;;;;;2.92;1.35;;;;;;;;;;5110312;28;20067;-69
2023/07/22 07:21:19;;;;;;;2.85;1.30;;;;;;;;;;5110106;28;20044;-69
2023/07/22 07:23:47;;;;;;;1.98;1.10;;;;;;;;;;5109850;28;20118;-68
2023/07/22 07:26:14;;;;;;;2.25;1.35;;;;;;;;;;5110148;28;20044;-67
2023/07/22 07:28:41;;;;;;;1.77;1.10;;;;;;;;;;5110531;28;20044;-68
2023/07/22 07:31:07;;;;;;;2.40;1.48;;;;;;;;;;5110093;28;20059;-68
2023/07/22 07:33:34;;;;;;;2.67;1.30;;;;;;;;;;5110073;28;20135;-68
2023/07/22 07:36:01;;;;;;;2.20;1.30;;;;;;;;;;5110197;28;20067;-73
2023/07/22 07:38:28;;;;;;;2.60;1.40;;;;;;;;;;5109712;28;20043;-71
2023/07/22 07:41:00;;;;;;;1.80;1.23;;;;;;;;;;5109838;28;20461;-69
2023/07/22 07:43:27;;;;;;;4.53;1.17;;;;;;;;;;5109904;28;20042;-68
2023/07/22 07:46:32;;;;;;;3.50;1.27;;;;;;;;;;5110001;28;20040;-71
2023/07/22 07:49:01;;;;;;;1.65;1.17;;;;;;;;;;5046784;28;20045;-70
2023/07/22 07:51:30;;;;;;;2.67;1.10;;;;;;;;;;5050691;28;20127;-73
2023/07/22 07:53:58;;;;;;;2.00;1.20;;;;;;;;;;5082497;28;20048;-70
2023/07/22 07:56:25;;;;;;;2.28;1.42;;;;;;;;;;5114040;28;20085;-69
2023/07/22 07:58:53;;;;;;;3.53;1.50;;;;;;;;;;5113855;28;20128;-70
2023/07/22 08:01:21;;;;;;;1.85;1.20;;;;;;;;;;5113400;28;20047;-70
2023/07/22 08:03:48;;;;;;;1.92;1.30;;;;;;;;;;5113459;28;20514;-69
2023/07/22 08:06:15;;;;;;;1.63;1.17;;;;;;;;;;5113775;28;20150;-69
2023/07/22 08:08:45;;;;;;;;;;;;;;;;;;5114124;28;20145;-67
2023/07/22 08:11:13;;;;;;;1.73;1.08;;;;;;;;;;5113476;28;19920;-70
2023/07/22 08:13:42;;;;;;;1.88;1.25;;;;;;;;;;5113689;28;20063;-69
2023/07/22 08:16:10;;;;;;;2.17;1.50;;;;;;;;;;5113459;28;20392;-70
2023/07/22 08:18:37;;;;;;;4.53;1.30;;;;;;;;;;5113467;28;20507;-73
2023/07/22 08:21:07;;;;;;;3.63;1.23;;;;;;;;;;5113598;28;20055;-71
2023/07/22 08:23:34;;;;;;;2.63;1.42;;;;;;;;;;5113247;28;20047;-73
2023/07/22 08:26:00;;;;;;;2.65;1.30;;;;;;;;;;5113310;28;20044;-74
2023/07/22 08:28:27;;;;;;;2.38;1.30;;;;;;;;;;5113310;28;20399;-79
2023/07/22 08:30:54;;;;;;;2.75;1.35;;;;;;;;;;5113209;28;20515;-79
2023/07/22 08:33:23;;;;;;;2.95;1.30;;;;;;;;;;5113210;28;20070;-74
2023/07/22 08:36:06;;;;;;;5.53;1.30;;;;;;;;;;5113145;28;20052;-72
2023/07/22 08:38:33;;;;;;;2.45;1.40;;;;;;;;;;5112752;28;20101;-73
2023/07/22 08:40:59;;;;;;;2.70;1.45;;;;;;;;;;5094800;28;20044;-69
2023/07/22 08:43:28;;;;;;;3.08;1.40;;;;;;;;;;5112992;28;20050;-70
2023/07/22 08:45:59;;;;;;;2.03;1.20;;;;;;;;;;5112760;28;20484;-71
2023/07/22 08:48:29;;;;;;;2.28;1.20;;;;;;;;;;5113105;28;20052;-70
2023/07/22 08:51:02;;;;;;;3.35;1.45;;;;;;;;;;5112950;28;20071;-67
2023/07/22 08:53:30;;;;;;;2.15;1.20;;;;;;;;;;5112996;28;20039;-72
2023/07/22 08:55:56;;;;;;;2.67;1.40;;;;;;;;;;5112436;28;20490;-68
2023/07/22 08:58:24;;;;;;;3.05;1.33;;;;;;;;;;5112683;28;20043;-71
2023/07/22 09:00:51;;;;;;;2.05;1.23;;;;;;;;;;5112243;28;20059;-69
2023/07/22 09:03:18;;;;;;;2.53;1.17;;;;;;;;;;5112996;28;20044;-73
2023/07/22 09:05:46;;;;;;;1.88;1.30;;;;;;;;;;5112558;28;20071;-70
2023/07/22 09:08:13;;;;;;;1.92;1.20;;;;;;;;;;5112881;28;20049;-68
2023/07/22 09:10:40;;;;;;;2.25;1.25;;;;;;;;;;5112465;28;20191;-70
2023/07/22 09:13:07;;;;;;;2.60;1.38;;;;;;;;;;5112626;28;20044;-71
2023/07/22 09:15:36;;;;;;;7.65;2.03;;;;;;;;;;5111976;28;20499;-71
2023/07/22 09:18:04;;;;;;;2.83;1.40;;;;;;;;;;5112331;28;20062;-68
2023/07/22 09:20:31;;;;;;;3.33;1.20;;;;;;;;;;5112238;28;20353;-67
2023/07/22 09:22:59;;;;;;;2.38;1.20;;;;;;;;;;5112532;28;20050;-70
2023/07/22 09:25:40;;;;;;;3.17;1.23;;;;;;;;;;5112227;28;20088;-71
2023/07/22 09:28:06;;;;;;;2.03;1.40;;;;;;;;;;5112487;28;20449;-68
2023/07/22 09:30:38;;;;;;;2.10;1.20;;;;;;;;;;5112057;28;20047;-69
2023/07/22 09:33:22;;;;;;;2.88;1.33;;;;;;;;;;5111961;28;20572;-68
2023/07/22 09:35:49;;;;;;;3.25;1.15;;;;;;;;;;5111594;28;20700;-67
2023/07/22 09:38:26;;;;;;;2.00;1.30;;;;;;;;;;5112484;28;20048;-68
2023/07/22 09:40:53;;;;;;;2.17;1.25;;;;;;;;;;5111850;28;20052;-68
2023/07/22 09:43:22;;;;;;;2.85;1.40;;;;;;;;;;5112222;28;20094;-71
2023/07/22 09:45:49;;;;;;;2.58;1.20;;;;;;;;;;5111790;28;20097;-70
2023/07/22 09:48:16;;;;;;;3.17;1.13;;;;;;;;;;5112096;28;20377;-68
2023/07/22 09:50:43;;;;;;;3.38;1.45;;;;;;;;;;5111588;28;20544;-69
2023/07/22 09:53:15;;;;;;;1.63;1.02;;;;;;;;;;5111505;28;20519;-70
2023/07/22 09:55:42;;;;;;;1.90;1.20;;;;;;;;;;5111284;28;20051;-71
2023/07/22 09:58:10;;;;;;;4.13;1.30;;;;;;;;;;5111581;28;20043;-68
2023/07/22 10:00:37;;;;;;;2.88;1.33;;;;;;;;;;5111681;28;20141;-73
2023/07/22 10:03:09;;;;;;;1.27;1.05;;;;;;;;;;5111362;28;20052;-70
2023/07/22 10:05:38;;;;;;;2.25;1.10;;;;;;;;;;5111568;28;20126;-68
2023/07/22 10:08:06;;;;;;;1.25;1.00;;;;;;;;;;5111659;28;20044;-68
2023/07/22 10:10:35;;;;;;;1.70;1.20;;;;;;;;;;5111481;28;20052;-72
2023/07/22 10:13:03;;;;;;;2.55;1.10;;;;;;;;;;5110584;28;20043;-70
2023/07/22 10:15:34;;;;;;;1.58;1.15;;;;;;;;;;5110973;28;20047;-74
2023/07/22 10:18:05;;;;;;;1.90;1.00;;;;;;;;;;5110899;28;20047;-71
2023/07/22 10:20:36;;;;;;;2.55;1.30;;;;;;;;;;5111202;28;20052;-69
2023/07/22 10:23:04;;;;;;;1.48;1.02;;;;;;;;;;5111366;28;20075;-68
2023/07/22 10:25:31;;;;;;;1.17;0.90;;;;;;;;;;5111265;28;20047;-69
2023/07/22 10:27:58;;;;;;;5.97;1.50;;;;;;;;;;5110810;28;20079;-69
2023/07/22 10:30:24;;;;;;;2.80;1.02;;;;;;;;;;5109952;28;20051;-68
2023/07/22 10:32:52;;;;;;;2.75;1.15;;;;;;;;;;5110488;28;20433;-69
2023/07/22 10:35:31;;;;;;;3.00;1.30;;;;;;;;;;5110677;28;20051;-69
2023/07/22 10:38:08;;;;;;;2.22;1.08;;;;;;;;;;5110418;28;20046;-72
2023/07/22 10:40:54;;;;;;;2.55;1.02;;;;;;;;;;5110902;28;20169;-68
2023/07/22 10:43:26;;;;;;;1.38;0.88;;;;;;;;;;5110762;28;20054;-69
2023/07/22 10:45:55;;;;;;;1.88;1.10;;;;;;;;;;5110745;28;20470;-69
2023/07/22 10:48:27;;;;;;;3.95;1.30;;;;;;;;;;5111011;28;20100;-70
2023/07/22 10:50:58;;;;;;;1.50;1.10;;;;;;;;;;5110609;28;20139;-70
2023/07/22 10:53:25;;;;;;;1.95;1.00;;;;;;;;;;5110416;28;20047;-69
2023/07/22 10:56:04;;;;;;;2.45;1.17;;;;;;;;;;5110654;28;20267;-70
2023/07/22 10:58:52;;;;;;;1.88;1.10;;;;;;;;;;5110628;28;20044;-68
2023/07/22 11:01:28;;;;;;;2.17;1.20;;;;;;;;;;5096606;28;20140;-68
2023/07/22 11:04:11;;;;;;;1.80;1.02;;;;;;;;;;5110768;28;20143;-69
2023/07/22 11:06:44;;;;;;;1.67;1.10;;;;;;;;;;5110361;28;20067;-69
2023/07/22 11:09:27;;;;;;;3.75;1.13;;;;;;;;;;5110512;28;20495;-69
2023/07/22 11:11:58;;;;;;;1.80;1.17;;;;;;;;;;5110159;28;20055;-76
2023/07/22 11:14:26;;;;;;;2.00;1.20;;;;;;;;;;5110802;28;20047;-68
2023/07/22 11:16:53;;;;;;;1.75;1.38;;;;;;;;;;5109899;28;20048;-68
2023/07/22 11:19:23;;;;;;;2.22;1.20;;;;;;;;;;5110554;28;20043;-68
2023/07/22 11:21:51;;;;;;;2.37;1.33;;;;;;;;;;5110063;28;20054;-68
2023/07/22 11:24:19;;;;;;;2.08;1.20;;;;;;;;;;5110772;28;20285;-69
2023/07/22 11:26:47;;;;;;;2.72;1.15;;;;;;;;;;5114540;28;20047;-67
2023/07/22 11:29:15;;;;;;;2.83;1.50;;;;;;;;;;5114537;28;20048;-68
2023/07/22 11:31:47;;;;;;;2.30;1.10;;;;;;;;;;5114504;28;20138;-68
2023/07/22 11:34:20;;;;;;;2.25;1.38;;;;;;;;;;5114431;28;20100;-67
2023/07/22 11:36:47;;;;;;;3.17;1.42;;;;;;;;;;5114133;28;20047;-68
2023/07/22 11:39:19;;;;;;;4.72;1.70;;;;;;;;;;5114314;28;20044;-68
2023/07/22 11:41:48;;;;;;;2.60;1.30;;;;;;;;;;5114603;28;20048;-67
2023/07/22 11:44:26;;;;;;;5.10;1.50;;;;;;;;;;5114401;28;20050;-67
2023/07/22 11:46:54;;;;;;;2.10;1.30;;;;;;;;;;5114195;28;20051;-68
2023/07/22 11:49:39;;;;;;;3.58;1.60;;;;;;;;;;5114239;28;20099;-68
2023/07/22 11:52:11;;;;;;;1.83;1.20;;;;;;;;;;5113711;28;20043;-68
2023/07/22 11:54:42;;;;;;;1.48;1.25;;;;;;;;;;5114115;28;20043;-68
2023/07/22 11:57:18;;;;;;;3.55;1.40;;;;;;;;;;5113570;28;20048;-68
2023/07/22 11:59:45;;;;;;;2.30;1.33;;;;;;;;;;5114111;28;20047;-68
2023/07/22 12:02:16;;;;;;;1.77;1.23;;;;;;;;;;5114012;28;20047;-68
2023/07/22 12:04:51;;;;;;;2.08;1.25;;;;;;;;;;5113790;28;20318;-68
2023/07/22 12:07:38;;;;;;;2.20;1.50;;;;;;;;;;5113172;28;20050;-69
2023/07/22 12:10:07;;;;;;;3.40;1.42;;;;;;;;;;5112719;28;20048;-68
2023/07/22 12:12:34;;;;;;;2.00;1.20;;;;;;;;;;5114053;28;20040;-68
2023/07/22 12:15:17;;;;;;;4.13;1.40;;;;;;;;;;5113754;28;20048;-68
2023/07/22 12:17:55;;;;;;;4.03;1.55;;;;;;;;;;5113160;28;20134;-68
2023/07/22 12:20:29;;;;;;;1.75;1.23;;;;;;;;;;5113874;28;20048;-68
2023/07/22 12:22:57;;;;;;;2.58;1.20;;;;;;;;;;5113530;28;20043;-68
2023/07/22 12:25:24;;;;;;;2.53;1.50;;;;;;;;;;5113498;28;20139;-69
2023/07/22 12:27:51;;;;;;;2.25;1.30;;;;;;;;;;5113470;28;20066;-68
2023/07/22 12:30:19;;;;;;;2.10;1.45;;;;;;;;;;5113444;28;20056;-68
2023/07/22 12:32:47;;;;;;;2.78;1.60;;;;;;;;;;5112925;28;20059;-68
2023/07/22 12:35:14;;;;;;;2.25;1.27;;;;;;;;;;5112650;28;20036;-68
2023/07/22 12:37:41;;;;;;;1.88;1.30;;;;;;;;;;5112802;28;20057;-68
2023/07/22 12:40:08;;;;;;;2.42;1.50;;;;;;;;;;5113515;28;20047;-68
2023/07/22 12:42:36;;;;;;;1.85;1.15;;;;;;;;;;5113154;28;20080;-68
2023/07/22 12:45:04;;;;;;;2.92;1.48;;;;;;;;;;5113299;28;20640;-68
2023/07/22 12:47:31;;;;;;;1.52;1.20;;;;;;;;;;5112996;28;20083;-68
2023/07/22 12:49:58;;;;;;;2.35;1.38;;;;;;;;;;5112836;28;20126;-68
2023/07/22 12:52:24;;;;;;;4.05;1.70;;;;;;;;;;5112829;28;20054;-68
2023/07/22 12:54:51;;;;;;;3.78;1.38;;;;;;;;;;5112769;28;20507;-69
2023/07/22 12:57:18;;;;;;;2.00;1.10;;;;;;;;;;5112578;28;20040;-68
2023/07/22 12:59:45;;;;;;;1.70;1.20;;;;;;;;;;5112502;28;20154;-69
2023/07/22 13:02:16;;;;;;;1.90;1.25;;;;;;;;;;5112668;28;20048;-68
2023/07/22 13:04:43;;;;;;;2.92;1.40;;;;;;;;;;5112901;28;20044;-68
2023/07/22 13:07:11;;;;;;;2.33;1.38;;;;;;;;;;5112850;28;20050;-68
2023/07/22 13:09:38;;;;;;;3.58;1.50;;;;;;;;;;5112554;28;20044;-68
2023/07/22 13:12:05;;;;;;;3.13;1.40;;;;;;;;;;5112490;28;20054;-68
2023/07/22 13:14:31;;;;;;;3.33;1.35;;;;;;;;;;5112354;28;20515;-68
2023/07/22 13:16:58;;;;;;;1.75;1.08;;;;;;;;;;5112530;28;20054;-69
2023/07/22 13:19:25;;;;;;;2.47;1.38;;;;;;;;;;5112385;28;20071;-67
2023/07/22 13:21:52;;;;;;;1.95;1.30;;;;;;;;;;5112443;28;20088;-68
2023/07/22 13:24:18;;;;;;;2.25;1.38;;;;;;;;;;5112408;28;20044;-68
2023/07/22 13:26:45;;;;;;;2.05;1.38;;;;;;;;;;5112313;28;20040;-68
2023/07/22 13:29:12;;;;;;;3.53;1.50;;;;;;;;;;5112098;28;20055;-69
2023/07/22 13:31:39;;;;;;;2.85;1.48;;;;;;;;;;5112027;28;20047;-68
2023/07/22 13:34:05;;;;;;;2.90;1.55;;;;;;;;;;5111903;28;20043;-68
2023/07/22 13:36:32;;;;;;;2.35;1.15;;;;;;;;;;5112024;28;20048;-68
2023/07/22 13:38:59;;;;;;;3.25;1.42;;;;;;;;;;5112155;28;20051;-68
2023/07/22 13:41:25;;;;;;;2.22;1.30;;;;;;;;;;5111917;28;20048;-68
2023/07/22 13:43:52;;;;;;;2.67;1.30;;;;;;;;;;5111972;28;20047;-68
2023/07/22 13:46:19;;;;;;;1.50;1.13;;;;;;;;;;5112056;28;20066;-68
2023/07/22 13:48:46;;;;;;;3.97;1.50;;;;;;;;;;5111089;28;20124;-68
2023/07/22 13:51:12;;;;;;;2.08;1.35;;;;;;;;;;5112021;28;20105;-68
2023/07/22 13:53:39;;;;;;;1.98;1.20;;;;;;;;;;5111443;28;20044;-68
2023/07/22 13:56:07;;;;;;;1.67;1.23;;;;;;;;;;5111444;28;20385;-69
2023/07/22 13:58:33;;;;;;;2.20;1.35;;;;;;;;;;5111181;28;20495;-68
2023/07/22 14:01:00;;;;;;;2.78;1.30;;;;;;;;;;5111589;28;20052;-68
2023/07/22 14:03:28;;;;;;;2.53;1.40;;;;;;;;;;5111590;28;20055;-68
2023/07/22 14:05:55;;;;;;;2.28;1.30;;;;;;;;;;5111589;28;20419;-68
2023/07/22 14:08:22;;;;;;;2.10;1.20;;;;;;;;;;5111244;28;20051;-68
2023/07/22 14:10:48;;;;;;;2.05;1.27;;;;;;;;;;5111322;28;20728;-67
2023/07/22 14:13:15;;;;;;;2.30;1.50;;;;;;;;;;5111253;28;20427;-68
2023/07/22 14:15:42;;;;;;;3.53;1.27;;;;;;;;;;5111190;28;20051;-68
2023/07/22 14:18:08;;;;;;;2.53;1.33;;;;;;;;;;5110997;28;20051;-68
2023/07/22 14:20:35;;;;;;;2.63;1.70;;;;;;;;;;5110775;28;20043;-68
2023/07/22 14:23:04;;;;;;;2.45;1.40;;;;;;;;;;5111095;28;20046;-68
2023/07/22 14:25:30;;;;;;;2.22;1.23;;;;;;;;;;5110995;28;20044;-69
2023/07/22 14:27:57;;;;;;;5.57;1.50;;;;;;;;;;5111151;28;20043;-70
2023/07/22 14:30:24;;;;;;;1.90;1.20;;;;;;;;;;5110738;28;20056;-69
2023/07/22 14:32:50;;;;;;;2.10;1.20;;;;;;;;;;5111244;28;20047;-69
2023/07/22 14:35:17;;;;;;;1.92;1.20;;;;;;;;;;5110743;28;20271;-68
2023/07/22 14:37:44;;;;;;;2.00;1.40;;;;;;;;;;5110493;28;20055;-68
2023/07/22 14:40:12;;;;;;;1.85;1.20;;;;;;;;;;5110713;28;20044;-70
2023/07/22 14:42:38;;;;;;;2.33;1.30;;;;;;;;;;5111351;28;20154;-68
2023/07/22 14:45:06;;;;;;;2.20;1.20;;;;;;;;;;5110917;28;20050;-69
2023/07/22 14:47:32;;;;;;;2.15;1.38;;;;;;;;;;5110877;28;20055;-68
2023/07/22 14:49:59;;;;;;;1.65;1.10;;;;;;;;;;5111000;28;20051;-67